Stockland, Illinois
Current Conditions -  °F | °C
As of 3:15 PM on Tuesday 27 Jan 2015 (Local Time) from KDNV Reporting Station
Overcast Overcast  
Wind Chill: 22°   Ceiling: 4800
Heat Index: 29°   Visibility: 10mi
Dew Point: 22°   Wind: 7mph
Humidity: 75%   Direction: 20°NNE
Pressure: 30.16"   Gusts: NA
Location:  40.61°N, 87.59°W
Report Text: KDNV 272115Z AUTO 02006KT 10SM OVC048 M02/M06 A3016 RMK AO2 T10171056
Loading
Personal Weather Stations






























Interactive Weather Map New forecast layout! Learn more

10-Day Weather Forecast

Advertisements
Track Severe Weather on mobile